Terminal Aerodrome Forecast
Issued by NWS Charleston, WV

Current Version | Previous Version | Graphics & Text | Print | Product List | Glossary On
Versions: 1 2 3 4 5 6 7 8 9 10 11 12 13 14 15 16 17 18 19 20 21 22 23 24 25 26 27 28 29 30
000
FTUS41 KRLX 261100
TAFHTS
TAF
KHTS 261132Z 2612/2712 13004KT 6SM BR SKC
      TEMPO 2612/2613 2SM BR SCT002
     FM261300 13004KT P6SM FEW045
     FM270600 00000KT 6SM BR SCT200=

USA.gov is the U.S. government's official web portal to all federal, state and local government web resources and services.